sensor_id;sensor_type;location;lat;lon;timestamp;P1;durP1;ratioP1;P2;durP2;ratioP2
7128;SDS011;3606;52.930;8.644;2023-01-08T00:01:02;4.47;;;3.43;;
7128;SDS011;3606;52.930;8.644;2023-01-08T00:03:29;4.20;;;3.40;;
7128;SDS011;3606;52.930;8.644;2023-01-08T00:05:58;4.40;;;4.00;;
7128;SDS011;3606;52.930;8.644;2023-01-08T00:08:24;4.10;;;3.40;;
7128;SDS011;3606;52.930;8.644;2023-01-08T00:10:52;3.93;;;3.43;;
7128;SDS011;3606;52.930;8.644;2023-01-08T00:13:19;3.97;;;3.03;;
7128;SDS011;3606;52.930;8.644;2023-01-08T00:15:45;3.60;;;2.83;;
7128;SDS011;3606;52.930;8.644;2023-01-08T00:18:11;3.93;;;3.50;;
7128;SDS011;3606;52.930;8.644;2023-01-08T00:20:39;3.63;;;3.00;;
7128;SDS011;3606;52.930;8.644;2023-01-08T00:23:08;4.10;;;3.27;;
7128;SDS011;3606;52.930;8.644;2023-01-08T00:25:37;4.73;;;3.13;;
7128;SDS011;3606;52.930;8.644;2023-01-08T00:28:03;5.53;;;3.07;;
7128;SDS011;3606;52.930;8.644;2023-01-08T00:30:29;5.30;;;3.30;;
7128;SDS011;3606;52.930;8.644;2023-01-08T00:32:54;4.43;;;3.10;;
7128;SDS011;3606;52.930;8.644;2023-01-08T00:35:20;3.87;;;3.03;;
7128;SDS011;3606;52.930;8.644;2023-01-08T00:37:47;4.20;;;2.93;;
7128;SDS011;3606;52.930;8.644;2023-01-08T00:40:14;3.63;;;3.10;;
7128;SDS011;3606;52.930;8.644;2023-01-08T00:42:39;3.00;;;2.80;;
7128;SDS011;3606;52.930;8.644;2023-01-08T00:45:05;6.17;;;2.53;;
7128;SDS011;3606;52.930;8.644;2023-01-08T00:47:31;3.70;;;3.13;;
7128;SDS011;3606;52.930;8.644;2023-01-08T00:49:57;4.60;;;3.20;;
7128;SDS011;3606;52.930;8.644;2023-01-08T00:52:23;3.77;;;3.00;;
7128;SDS011;3606;52.930;8.644;2023-01-08T00:54:48;4.17;;;3.00;;
7128;SDS011;3606;52.930;8.644;2023-01-08T00:57:14;3.07;;;2.70;;
7128;SDS011;3606;52.930;8.644;2023-01-08T00:59:40;3.20;;;2.90;;
7128;SDS011;3606;52.930;8.644;2023-01-08T01:02:05;3.47;;;3.17;;
7128;SDS011;3606;52.930;8.644;2023-01-08T01:04:31;3.90;;;3.10;;
7128;SDS011;3606;52.930;8.644;2023-01-08T01:06:56;4.53;;;3.30;;
7128;SDS011;3606;52.930;8.644;2023-01-08T01:09:22;3.67;;;3.23;;
7128;SDS011;3606;52.930;8.644;2023-01-08T01:11:47;3.53;;;2.90;;
7128;SDS011;3606;52.930;8.644;2023-01-08T01:14:13;5.30;;;3.00;;
7128;SDS011;3606;52.930;8.644;2023-01-08T01:16:38;3.23;;;2.83;;
7128;SDS011;3606;52.930;8.644;2023-01-08T01:19:05;4.93;;;2.93;;
7128;SDS011;3606;52.930;8.644;2023-01-08T01:21:31;5.47;;;3.27;;
7128;SDS011;3606;52.930;8.644;2023-01-08T01:24:03;2.83;;;2.37;;
7128;SDS011;3606;52.930;8.644;2023-01-08T01:26:30;2.83;;;2.63;;
7128;SDS011;3606;52.930;8.644;2023-01-08T01:28:57;3.77;;;2.70;;
7128;SDS011;3606;52.930;8.644;2023-01-08T01:31:23;3.20;;;2.80;;
7128;SDS011;3606;52.930;8.644;2023-01-08T01:33:51;4.60;;;2.80;;
7128;SDS011;3606;52.930;8.644;2023-01-08T01:36:17;3.40;;;3.10;;
7128;SDS011;3606;52.930;8.644;2023-01-08T01:38:44;4.60;;;2.97;;
7128;SDS011;3606;52.930;8.644;2023-01-08T01:41:18;3.47;;;3.03;;
7128;SDS011;3606;52.930;8.644;2023-01-08T01:43:56;4.37;;;3.10;;
7128;SDS011;3606;52.930;8.644;2023-01-08T01:46:36;4.17;;;3.07;;
7128;SDS011;3606;52.930;8.644;2023-01-08T01:49:07;3.00;;;2.70;;
7128;SDS011;3606;52.930;8.644;2023-01-08T01:51:36;2.90;;;2.60;;
7128;SDS011;3606;52.930;8.644;2023-01-08T01:54:06;6.27;;;2.83;;
7128;SDS011;3606;52.930;8.644;2023-01-08T01:56:35;2.77;;;2.57;;
7128;SDS011;3606;52.930;8.644;2023-01-08T01:59:02;3.20;;;2.67;;
7128;SDS011;3606;52.930;8.644;2023-01-08T02:01:29;2.97;;;2.70;;
7128;SDS011;3606;52.930;8.644;2023-01-08T02:03:55;2.93;;;2.57;;
7128;SDS011;3606;52.930;8.644;2023-01-08T02:17:24;3.60;;;2.63;;
7128;SDS011;3606;52.930;8.644;2023-01-08T02:19:55;3.13;;;2.70;;
7128;SDS011;3606;52.930;8.644;2023-01-08T02:22:47;2.90;;;2.40;;
7128;SDS011;3606;52.930;8.644;2023-01-08T02:28:14;4.30;;;2.93;;
7128;SDS011;3606;52.930;8.644;2023-01-08T02:30:41;3.37;;;2.83;;
7128;SDS011;3606;52.930;8.644;2023-01-08T02:33:07;3.90;;;2.27;;
7128;SDS011;3606;52.930;8.644;2023-01-08T02:35:36;3.27;;;2.63;;
7128;SDS011;3606;52.930;8.644;2023-01-08T02:38:07;5.93;;;2.77;;
7128;SDS011;3606;52.930;8.644;2023-01-08T02:43:44;4.97;;;2.80;;
7128;SDS011;3606;52.930;8.644;2023-01-08T02:46:13;4.30;;;2.90;;
7128;SDS011;3606;52.930;8.644;2023-01-08T02:49:02;2.83;;;2.50;;
7128;SDS011;3606;52.930;8.644;2023-01-08T02:51:37;4.13;;;2.80;;
7128;SDS011;3606;52.930;8.644;2023-01-08T02:54:10;3.97;;;2.97;;
7128;SDS011;3606;52.930;8.644;2023-01-08T02:56:44;3.50;;;2.37;;
7128;SDS011;3606;52.930;8.644;2023-01-08T02:59:13;4.47;;;3.20;;
7128;SDS011;3606;52.930;8.644;2023-01-08T03:01:40;5.03;;;2.80;;
7128;SDS011;3606;52.930;8.644;2023-01-08T03:04:10;3.67;;;3.00;;
7128;SDS011;3606;52.930;8.644;2023-01-08T03:06:40;3.87;;;2.80;;
7128;SDS011;3606;52.930;8.644;2023-01-08T03:09:07;2.80;;;2.50;;
7128;SDS011;3606;52.930;8.644;2023-01-08T03:11:40;3.97;;;3.13;;
7128;SDS011;3606;52.930;8.644;2023-01-08T03:14:21;3.10;;;2.80;;
7128;SDS011;3606;52.930;8.644;2023-01-08T03:16:56;6.53;;;2.87;;
7128;SDS011;3606;52.930;8.644;2023-01-08T03:19:27;3.40;;;2.90;;
7128;SDS011;3606;52.930;8.644;2023-01-08T03:21:57;3.30;;;3.00;;
7128;SDS011;3606;52.930;8.644;2023-01-08T03:24:27;4.20;;;3.03;;
7128;SDS011;3606;52.930;8.644;2023-01-08T03:26:56;3.57;;;3.27;;
7128;SDS011;3606;52.930;8.644;2023-01-08T03:29:24;2.93;;;2.63;;
7128;SDS011;3606;52.930;8.644;2023-01-08T03:31:52;3.13;;;2.77;;
7128;SDS011;3606;52.930;8.644;2023-01-08T03:34:22;3.10;;;2.70;;
7128;SDS011;3606;52.930;8.644;2023-01-08T03:36:49;2.83;;;2.53;;
7128;SDS011;3606;52.930;8.644;2023-01-08T03:39:33;3.17;;;2.87;;
7128;SDS011;3606;52.930;8.644;2023-01-08T03:42:19;3.70;;;2.77;;
7128;SDS011;3606;52.930;8.644;2023-01-08T03:44:46;3.60;;;2.90;;
7128;SDS011;3606;52.930;8.644;2023-01-08T03:47:12;4.03;;;3.13;;
7128;SDS011;3606;52.930;8.644;2023-01-08T03:49:39;2.70;;;2.50;;
7128;SDS011;3606;52.930;8.644;2023-01-08T03:52:07;5.13;;;2.80;;
7128;SDS011;3606;52.930;8.644;2023-01-08T03:54:33;3.90;;;3.00;;
7128;SDS011;3606;52.930;8.644;2023-01-08T03:57:00;3.40;;;2.87;;
7128;SDS011;3606;52.930;8.644;2023-01-08T03:59:26;2.73;;;2.50;;
7128;SDS011;3606;52.930;8.644;2023-01-08T04:01:51;3.23;;;2.93;;
7128;SDS011;3606;52.930;8.644;2023-01-08T04:04:17;3.67;;;2.93;;
7128;SDS011;3606;52.930;8.644;2023-01-08T04:06:42;4.83;;;2.60;;
7128;SDS011;3606;52.930;8.644;2023-01-08T04:09:08;4.90;;;3.00;;
7128;SDS011;3606;52.930;8.644;2023-01-08T04:11:34;3.97;;;3.00;;
7128;SDS011;3606;52.930;8.644;2023-01-08T04:14:00;3.53;;;2.60;;
7128;SDS011;3606;52.930;8.644;2023-01-08T04:16:26;4.43;;;2.90;;
7128;SDS011;3606;52.930;8.644;2023-01-08T04:18:51;3.20;;;2.90;;
7128;SDS011;3606;52.930;8.644;2023-01-08T04:21:17;4.60;;;2.93;;
7128;SDS011;3606;52.930;8.644;2023-01-08T04:23:43;4.10;;;2.60;;
7128;SDS011;3606;52.930;8.644;2023-01-08T04:26:08;3.57;;;2.70;;
7128;SDS011;3606;52.930;8.644;2023-01-08T04:28:34;4.93;;;2.80;;
7128;SDS011;3606;52.930;8.644;2023-01-08T04:31:04;4.47;;;3.00;;
7128;SDS011;3606;52.930;8.644;2023-01-08T04:33:33;3.57;;;3.10;;
7128;SDS011;3606;52.930;8.644;2023-01-08T04:35:59;4.77;;;2.87;;
7128;SDS011;3606;52.930;8.644;2023-01-08T04:38:24;3.60;;;3.00;;
7128;SDS011;3606;52.930;8.644;2023-01-08T04:40:54;4.20;;;3.00;;
7128;SDS011;3606;52.930;8.644;2023-01-08T04:43:24;4.27;;;2.90;;
7128;SDS011;3606;52.930;8.644;2023-01-08T04:45:50;3.87;;;2.90;;
7128;SDS011;3606;52.930;8.644;2023-01-08T04:48:16;4.87;;;2.83;;
7128;SDS011;3606;52.930;8.644;2023-01-08T04:50:41;6.97;;;3.40;;
7128;SDS011;3606;52.930;8.644;2023-01-08T04:53:07;6.40;;;3.60;;
7128;SDS011;3606;52.930;8.644;2023-01-08T04:55:32;3.93;;;3.33;;
7128;SDS011;3606;52.930;8.644;2023-01-08T04:57:58;5.80;;;4.00;;
7128;SDS011;3606;52.930;8.644;2023-01-08T05:00:24;5.77;;;3.87;;
7128;SDS011;3606;52.930;8.644;2023-01-08T05:02:49;6.60;;;3.67;;
7128;SDS011;3606;52.930;8.644;2023-01-08T05:05:15;5.93;;;3.40;;
7128;SDS011;3606;52.930;8.644;2023-01-08T05:07:41;3.10;;;2.70;;
7128;SDS011;3606;52.930;8.644;2023-01-08T05:10:06;5.27;;;3.13;;
7128;SDS011;3606;52.930;8.644;2023-01-08T05:12:32;4.13;;;2.40;;
7128;SDS011;3606;52.930;8.644;2023-01-08T05:14:58;3.33;;;3.03;;
7128;SDS011;3606;52.930;8.644;2023-01-08T05:17:23;4.00;;;2.77;;
7128;SDS011;3606;52.930;8.644;2023-01-08T05:19:49;3.47;;;2.63;;
7128;SDS011;3606;52.930;8.644;2023-01-08T05:22:14;3.97;;;3.00;;
7128;SDS011;3606;52.930;8.644;2023-01-08T05:24:40;2.90;;;2.70;;
7128;SDS011;3606;52.930;8.644;2023-01-08T05:27:05;3.07;;;2.63;;
7128;SDS011;3606;52.930;8.644;2023-01-08T05:29:31;4.30;;;2.83;;
7128;SDS011;3606;52.930;8.644;2023-01-08T05:31:57;3.50;;;2.60;;
7128;SDS011;3606;52.930;8.644;2023-01-08T05:34:22;3.33;;;2.60;;
7128;SDS011;3606;52.930;8.644;2023-01-08T05:36:48;3.00;;;2.70;;
7128;SDS011;3606;52.930;8.644;2023-01-08T05:39:13;3.87;;;3.00;;
7128;SDS011;3606;52.930;8.644;2023-01-08T05:41:39;3.03;;;2.37;;
7128;SDS011;3606;52.930;8.644;2023-01-08T05:44:05;3.80;;;2.50;;
7128;SDS011;3606;52.930;8.644;2023-01-08T05:46:30;4.13;;;2.73;;
7128;SDS011;3606;52.930;8.644;2023-01-08T05:48:56;3.77;;;2.57;;
7128;SDS011;3606;52.930;8.644;2023-01-08T05:51:22;2.70;;;2.50;;
7128;SDS011;3606;52.930;8.644;2023-01-08T05:53:47;3.13;;;2.83;;
7128;SDS011;3606;52.930;8.644;2023-01-08T05:56:13;2.60;;;2.20;;
7128;SDS011;3606;52.930;8.644;2023-01-08T05:58:39;3.87;;;2.60;;
7128;SDS011;3606;52.930;8.644;2023-01-08T06:01:05;6.10;;;2.93;;
7128;SDS011;3606;52.930;8.644;2023-01-08T06:03:33;3.57;;;2.10;;
7128;SDS011;3606;52.930;8.644;2023-01-08T06:06:02;3.90;;;2.37;;
7128;SDS011;3606;52.930;8.644;2023-01-08T06:08:29;3.53;;;2.57;;
7128;SDS011;3606;52.930;8.644;2023-01-08T06:11:02;2.50;;;2.20;;
7128;SDS011;3606;52.930;8.644;2023-01-08T06:13:30;2.50;;;2.13;;
7128;SDS011;3606;52.930;8.644;2023-01-08T06:15:57;2.67;;;2.00;;
7128;SDS011;3606;52.930;8.644;2023-01-08T06:18:26;4.67;;;2.80;;
7128;SDS011;3606;52.930;8.644;2023-01-08T06:20:53;2.90;;;2.10;;
7128;SDS011;3606;52.930;8.644;2023-01-08T06:23:19;3.20;;;2.07;;
7128;SDS011;3606;52.930;8.644;2023-01-08T06:25:50;3.23;;;2.40;;
7128;SDS011;3606;52.930;8.644;2023-01-08T06:28:19;3.10;;;2.80;;
7128;SDS011;3606;52.930;8.644;2023-01-08T06:30:45;4.30;;;2.40;;
7128;SDS011;3606;52.930;8.644;2023-01-08T06:33:11;4.77;;;2.60;;
7128;SDS011;3606;52.930;8.644;2023-01-08T06:35:36;3.23;;;2.43;;
7128;SDS011;3606;52.930;8.644;2023-01-08T06:38:02;3.80;;;2.60;;
7128;SDS011;3606;52.930;8.644;2023-01-08T06:40:27;2.63;;;2.27;;
7128;SDS011;3606;52.930;8.644;2023-01-08T06:42:53;3.47;;;2.33;;
7128;SDS011;3606;52.930;8.644;2023-01-08T06:45:19;3.97;;;2.30;;
7128;SDS011;3606;52.930;8.644;2023-01-08T06:47:44;2.87;;;2.30;;
7128;SDS011;3606;52.930;8.644;2023-01-08T06:50:10;3.53;;;2.37;;
7128;SDS011;3606;52.930;8.644;2023-01-08T06:52:36;2.37;;;2.17;;
7128;SDS011;3606;52.930;8.644;2023-01-08T06:55:02;2.33;;;2.13;;
7128;SDS011;3606;52.930;8.644;2023-01-08T06:57:30;5.33;;;2.53;;
7128;SDS011;3606;52.930;8.644;2023-01-08T06:59:55;2.23;;;2.00;;
7128;SDS011;3606;52.930;8.644;2023-01-08T07:02:21;2.60;;;2.40;;
7128;SDS011;3606;52.930;8.644;2023-01-08T07:04:47;5.83;;;2.53;;
7128;SDS011;3606;52.930;8.644;2023-01-08T07:07:13;6.77;;;2.83;;
7128;SDS011;3606;52.930;8.644;2023-01-08T07:09:39;2.83;;;2.23;;
7128;SDS011;3606;52.930;8.644;2023-01-08T07:12:09;2.83;;;2.30;;
7128;SDS011;3606;52.930;8.644;2023-01-08T07:14:36;2.47;;;2.27;;
7128;SDS011;3606;52.930;8.644;2023-01-08T07:17:01;4.23;;;2.27;;
7128;SDS011;3606;52.930;8.644;2023-01-08T07:19:27;2.93;;;2.10;;
7128;SDS011;3606;52.930;8.644;2023-01-08T07:21:52;3.70;;;2.20;;
7128;SDS011;3606;52.930;8.644;2023-01-08T07:24:18;3.97;;;2.73;;
7128;SDS011;3606;52.930;8.644;2023-01-08T07:26:43;6.07;;;2.30;;
7128;SDS011;3606;52.930;8.644;2023-01-08T07:29:09;2.53;;;2.33;;
7128;SDS011;3606;52.930;8.644;2023-01-08T07:31:34;4.30;;;2.67;;
7128;SDS011;3606;52.930;8.644;2023-01-08T07:34:00;3.30;;;2.57;;
7128;SDS011;3606;52.930;8.644;2023-01-08T07:36:26;4.27;;;2.67;;
7128;SDS011;3606;52.930;8.644;2023-01-08T07:38:51;2.80;;;2.57;;
7128;SDS011;3606;52.930;8.644;2023-01-08T07:41:17;4.03;;;2.90;;
7128;SDS011;3606;52.930;8.644;2023-01-08T07:43:42;3.07;;;2.20;;
7128;SDS011;3606;52.930;8.644;2023-01-08T07:46:10;4.60;;;3.00;;
7128;SDS011;3606;52.930;8.644;2023-01-08T07:48:36;4.23;;;2.70;;
7128;SDS011;3606;52.930;8.644;2023-01-08T07:51:02;5.57;;;3.17;;
7128;SDS011;3606;52.930;8.644;2023-01-08T07:53:29;3.90;;;2.77;;
7128;SDS011;3606;52.930;8.644;2023-01-08T07:56:01;3.27;;;2.63;;
7128;SDS011;3606;52.930;8.644;2023-01-08T07:58:28;6.07;;;3.70;;
7128;SDS011;3606;52.930;8.644;2023-01-08T08:00:54;6.00;;;3.50;;
7128;SDS011;3606;52.930;8.644;2023-01-08T08:03:20;4.53;;;3.17;;
7128;SDS011;3606;52.930;8.644;2023-01-08T08:05:46;3.67;;;3.10;;
7128;SDS011;3606;52.930;8.644;2023-01-08T08:08:12;4.03;;;2.80;;
7128;SDS011;3606;52.930;8.644;2023-01-08T08:10:38;5.73;;;3.57;;
7128;SDS011;3606;52.930;8.644;2023-01-08T08:13:04;5.37;;;3.00;;
7128;SDS011;3606;52.930;8.644;2023-01-08T08:15:31;3.00;;;2.70;;
7128;SDS011;3606;52.930;8.644;2023-01-08T08:17:57;3.10;;;2.80;;
7128;SDS011;3606;52.930;8.644;2023-01-08T08:20:23;3.97;;;3.00;;
7128;SDS011;3606;52.930;8.644;2023-01-08T08:22:49;4.40;;;3.10;;
7128;SDS011;3606;52.930;8.644;2023-01-08T08:25:15;4.53;;;2.70;;
7128;SDS011;3606;52.930;8.644;2023-01-08T08:27:41;3.93;;;2.70;;
7128;SDS011;3606;52.930;8.644;2023-01-08T08:30:08;3.13;;;2.63;;
7128;SDS011;3606;52.930;8.644;2023-01-08T08:32:34;4.33;;;3.27;;
7128;SDS011;3606;52.930;8.644;2023-01-08T08:35:00;3.20;;;2.90;;
7128;SDS011;3606;52.930;8.644;2023-01-08T08:37:26;3.20;;;2.47;;
7128;SDS011;3606;52.930;8.644;2023-01-08T08:39:51;5.17;;;3.30;;
7128;SDS011;3606;52.930;8.644;2023-01-08T08:42:17;3.50;;;2.77;;
7128;SDS011;3606;52.930;8.644;2023-01-08T08:44:43;3.90;;;2.77;;
7128;SDS011;3606;52.930;8.644;2023-01-08T08:47:08;3.10;;;2.70;;
7128;SDS011;3606;52.930;8.644;2023-01-08T08:49:34;4.83;;;3.17;;
7128;SDS011;3606;52.930;8.644;2023-01-08T08:52:00;10.07;;;5.07;;
7128;SDS011;3606;52.930;8.644;2023-01-08T08:54:27;7.60;;;4.27;;
7128;SDS011;3606;52.930;8.644;2023-01-08T08:56:52;3.30;;;2.87;;
7128;SDS011;3606;52.930;8.644;2023-01-08T08:59:18;2.70;;;2.50;;
7128;SDS011;3606;52.930;8.644;2023-01-08T09:01:43;5.13;;;3.00;;
7128;SDS011;3606;52.930;8.644;2023-01-08T09:04:09;5.60;;;2.83;;
7128;SDS011;3606;52.930;8.644;2023-01-08T09:06:34;4.27;;;2.40;;
7128;SDS011;3606;52.930;8.644;2023-01-08T09:09:00;4.63;;;2.50;;
7128;SDS011;3606;52.930;8.644;2023-01-08T09:11:26;2.50;;;2.23;;
7128;SDS011;3606;52.930;8.644;2023-01-08T09:13:51;2.30;;;2.10;;
7128;SDS011;3606;52.930;8.644;2023-01-08T09:16:17;3.80;;;2.60;;
7128;SDS011;3606;52.930;8.644;2023-01-08T09:18:42;3.40;;;2.10;;
7128;SDS011;3606;52.930;8.644;2023-01-08T09:21:09;2.27;;;1.83;;
7128;SDS011;3606;52.930;8.644;2023-01-08T09:23:34;2.50;;;2.17;;
7128;SDS011;3606;52.930;8.644;2023-01-08T09:26:03;2.80;;;2.30;;
7128;SDS011;3606;52.930;8.644;2023-01-08T09:28:30;2.57;;;2.37;;
7128;SDS011;3606;52.930;8.644;2023-01-08T09:30:59;3.23;;;2.57;;
7128;SDS011;3606;52.930;8.644;2023-01-08T09:33:26;2.90;;;2.40;;
7128;SDS011;3606;52.930;8.644;2023-01-08T09:35:52;2.50;;;2.30;;
7128;SDS011;3606;52.930;8.644;2023-01-08T09:38:18;3.97;;;2.60;;
7128;SDS011;3606;52.930;8.644;2023-01-08T09:40:50;2.97;;;2.53;;
7128;SDS011;3606;52.930;8.644;2023-01-08T09:43:29;4.10;;;2.10;;
7128;SDS011;3606;52.930;8.644;2023-01-08T09:45:59;4.53;;;2.10;;
7128;SDS011;3606;52.930;8.644;2023-01-08T09:48:33;3.17;;;2.40;;
7128;SDS011;3606;52.930;8.644;2023-01-08T09:51:01;2.50;;;2.17;;
7128;SDS011;3606;52.930;8.644;2023-01-08T09:53:27;4.60;;;2.70;;
7128;SDS011;3606;52.930;8.644;2023-01-08T09:55:54;2.70;;;2.30;;
7128;SDS011;3606;52.930;8.644;2023-01-08T10:01:10;4.87;;;2.77;;
7128;SDS011;3606;52.930;8.644;2023-01-08T10:06:08;2.40;;;2.20;;
7128;SDS011;3606;52.930;8.644;2023-01-08T10:08:34;2.40;;;2.20;;
7128;SDS011;3606;52.930;8.644;2023-01-08T10:11:00;3.07;;;2.20;;
7128;SDS011;3606;52.930;8.644;2023-01-08T10:13:27;2.60;;;1.90;;
7128;SDS011;3606;52.930;8.644;2023-01-08T10:15:53;1.73;;;1.60;;
7128;SDS011;3606;52.930;8.644;2023-01-08T10:18:18;2.13;;;1.93;;
7128;SDS011;3606;52.930;8.644;2023-01-08T10:20:47;2.37;;;1.80;;
7128;SDS011;3606;52.930;8.644;2023-01-08T10:23:14;2.93;;;1.80;;
7128;SDS011;3606;52.930;8.644;2023-01-08T10:25:47;6.50;;;2.17;;
7128;SDS011;3606;52.930;8.644;2023-01-08T10:28:18;3.10;;;1.90;;
7128;SDS011;3606;52.930;8.644;2023-01-08T10:30:48;1.93;;;1.67;;
7128;SDS011;3606;52.930;8.644;2023-01-08T10:33:23;2.83;;;2.07;;
7128;SDS011;3606;52.930;8.644;2023-01-08T10:36:03;1.83;;;1.67;;
7128;SDS011;3606;52.930;8.644;2023-01-08T10:38:32;2.50;;;1.83;;
7128;SDS011;3606;52.930;8.644;2023-01-08T10:41:02;1.70;;;1.60;;
7128;SDS011;3606;52.930;8.644;2023-01-08T10:43:40;2.33;;;1.47;;
7128;SDS011;3606;52.930;8.644;2023-01-08T10:46:51;1.17;;;1.07;;
7128;SDS011;3606;52.930;8.644;2023-01-08T10:49:28;3.00;;;1.77;;
7128;SDS011;3606;52.930;8.644;2023-01-08T10:52:18;1.43;;;1.00;;
7128;SDS011;3606;52.930;8.644;2023-01-08T10:54:51;5.40;;;1.70;;
7128;SDS011;3606;52.930;8.644;2023-01-08T10:57:18;2.77;;;1.73;;
7128;SDS011;3606;52.930;8.644;2023-01-08T10:59:44;2.63;;;1.47;;
7128;SDS011;3606;52.930;8.644;2023-01-08T11:02:15;7.00;;;1.73;;
7128;SDS011;3606;52.930;8.644;2023-01-08T11:04:47;2.30;;;1.70;;
7128;SDS011;3606;52.930;8.644;2023-01-08T11:07:18;3.87;;;2.13;;
7128;SDS011;3606;52.930;8.644;2023-01-08T11:09:45;4.83;;;2.40;;
7128;SDS011;3606;52.930;8.644;2023-01-08T11:15:03;3.37;;;1.60;;
7128;SDS011;3606;52.930;8.644;2023-01-08T11:17:49;3.33;;;1.73;;
7128;SDS011;3606;52.930;8.644;2023-01-08T11:20:36;2.37;;;1.40;;
7128;SDS011;3606;52.930;8.644;2023-01-08T11:23:06;4.90;;;1.93;;
7128;SDS011;3606;52.930;8.644;2023-01-08T11:25:50;4.67;;;1.70;;
7128;SDS011;3606;52.930;8.644;2023-01-08T11:28:23;2.13;;;1.57;;
7128;SDS011;3606;52.930;8.644;2023-01-08T11:30:56;3.60;;;1.67;;
7128;SDS011;3606;52.930;8.644;2023-01-08T11:33:27;7.03;;;1.90;;
7128;SDS011;3606;52.930;8.644;2023-01-08T11:36:02;4.37;;;1.97;;
7128;SDS011;3606;52.930;8.644;2023-01-08T11:38:35;3.77;;;1.70;;
7128;SDS011;3606;52.930;8.644;2023-01-08T11:55:25;4.80;;;2.03;;
7128;SDS011;3606;52.930;8.644;2023-01-08T12:03:10;5.70;;;1.80;;
7128;SDS011;3606;52.930;8.644;2023-01-08T12:05:52;6.17;;;1.83;;
7128;SDS011;3606;52.930;8.644;2023-01-08T12:08:28;6.73;;;2.00;;
7128;SDS011;3606;52.930;8.644;2023-01-08T12:14:12;7.07;;;2.23;;
7128;SDS011;3606;52.930;8.644;2023-01-08T12:25:20;8.53;;;2.00;;
7128;SDS011;3606;52.930;8.644;2023-01-08T12:34:08;10.43;;;2.27;;
7128;SDS011;3606;52.930;8.644;2023-01-08T12:36:39;6.13;;;1.87;;
7128;SDS011;3606;52.930;8.644;2023-01-08T12:39:11;6.77;;;2.43;;
7128;SDS011;3606;52.930;8.644;2023-01-08T12:41:53;5.77;;;1.90;;
7128;SDS011;3606;52.930;8.644;2023-01-08T12:44:28;6.77;;;2.20;;
7128;SDS011;3606;52.930;8.644;2023-01-08T12:46:56;5.67;;;2.37;;
7128;SDS011;3606;52.930;8.644;2023-01-08T12:49:28;11.37;;;2.87;;
7128;SDS011;3606;52.930;8.644;2023-01-08T12:52:04;8.47;;;2.30;;
7128;SDS011;3606;52.930;8.644;2023-01-08T12:54:39;5.43;;;3.13;;
7128;SDS011;3606;52.930;8.644;2023-01-08T12:57:14;5.17;;;2.50;;
7128;SDS011;3606;52.930;8.644;2023-01-08T13:00:02;4.63;;;2.27;;
7128;SDS011;3606;52.930;8.644;2023-01-08T13:02:50;8.40;;;2.60;;
7128;SDS011;3606;52.930;8.644;2023-01-08T13:07:53;6.03;;;2.70;;
7128;SDS011;3606;52.930;8.644;2023-01-08T13:10:38;4.80;;;2.17;;
7128;SDS011;3606;52.930;8.644;2023-01-08T13:13:27;5.47;;;1.87;;
7128;SDS011;3606;52.930;8.644;2023-01-08T13:18:35;4.93;;;2.10;;
7128;SDS011;3606;52.930;8.644;2023-01-08T13:21:02;7.73;;;2.33;;
7128;SDS011;3606;52.930;8.644;2023-01-08T13:23:33;8.47;;;2.67;;
7128;SDS011;3606;52.930;8.644;2023-01-08T13:26:00;9.87;;;2.20;;
7128;SDS011;3606;52.930;8.644;2023-01-08T13:30:53;4.77;;;1.97;;
7128;SDS011;3606;52.930;8.644;2023-01-08T13:36:11;4.43;;;2.13;;
7128;SDS011;3606;52.930;8.644;2023-01-08T13:41:35;5.73;;;2.33;;
7128;SDS011;3606;52.930;8.644;2023-01-08T13:44:40;9.50;;;3.00;;
7128;SDS011;3606;52.930;8.644;2023-01-08T13:47:05;6.47;;;2.47;;
7128;SDS011;3606;52.930;8.644;2023-01-08T13:49:41;7.33;;;2.40;;
7128;SDS011;3606;52.930;8.644;2023-01-08T13:52:35;7.23;;;3.03;;
7128;SDS011;3606;52.930;8.644;2023-01-08T13:55:12;6.50;;;2.50;;
7128;SDS011;3606;52.930;8.644;2023-01-08T13:57:41;6.27;;;2.40;;
7128;SDS011;3606;52.930;8.644;2023-01-08T14:00:18;7.10;;;2.80;;
7128;SDS011;3606;52.930;8.644;2023-01-08T14:02:50;5.83;;;2.20;;
7128;SDS011;3606;52.930;8.644;2023-01-08T14:05:23;8.63;;;2.43;;
7128;SDS011;3606;52.930;8.644;2023-01-08T14:07:51;8.83;;;2.57;;
7128;SDS011;3606;52.930;8.644;2023-01-08T14:10:17;4.03;;;2.37;;
7128;SDS011;3606;52.930;8.644;2023-01-08T14:12:43;6.77;;;2.43;;
7128;SDS011;3606;52.930;8.644;2023-01-08T14:15:13;5.53;;;2.07;;
7128;SDS011;3606;52.930;8.644;2023-01-08T14:17:50;7.17;;;2.60;;
7128;SDS011;3606;52.930;8.644;2023-01-08T14:20:28;5.37;;;2.07;;
7128;SDS011;3606;52.930;8.644;2023-01-08T14:22:59;12.37;;;2.50;;
7128;SDS011;3606;52.930;8.644;2023-01-08T14:25:26;7.40;;;2.37;;
7128;SDS011;3606;52.930;8.644;2023-01-08T14:28:02;4.27;;;2.07;;
7128;SDS011;3606;52.930;8.644;2023-01-08T14:30:29;11.20;;;2.53;;
7128;SDS011;3606;52.930;8.644;2023-01-08T14:32:55;5.27;;;2.13;;
7128;SDS011;3606;52.930;8.644;2023-01-08T14:35:27;6.67;;;1.93;;
7128;SDS011;3606;52.930;8.644;2023-01-08T14:37:56;10.50;;;2.50;;
7128;SDS011;3606;52.930;8.644;2023-01-08T14:40:28;7.60;;;3.27;;
7128;SDS011;3606;52.930;8.644;2023-01-08T14:42:55;10.80;;;2.73;;
7128;SDS011;3606;52.930;8.644;2023-01-08T14:45:29;8.90;;;2.30;;
7128;SDS011;3606;52.930;8.644;2023-01-08T14:47:58;8.23;;;2.60;;
7128;SDS011;3606;52.930;8.644;2023-01-08T14:50:37;13.40;;;2.60;;
7128;SDS011;3606;52.930;8.644;2023-01-08T14:53:06;7.27;;;1.90;;
7128;SDS011;3606;52.930;8.644;2023-01-08T14:55:45;5.53;;;2.10;;
7128;SDS011;3606;52.930;8.644;2023-01-08T14:58:14;9.10;;;2.33;;
7128;SDS011;3606;52.930;8.644;2023-01-08T15:00:45;6.87;;;2.40;;
7128;SDS011;3606;52.930;8.644;2023-01-08T15:06:05;4.97;;;2.40;;
7128;SDS011;3606;52.930;8.644;2023-01-08T15:11:09;5.87;;;2.20;;
7128;SDS011;3606;52.930;8.644;2023-01-08T15:13:39;3.63;;;1.63;;
7128;SDS011;3606;52.930;8.644;2023-01-08T15:16:09;9.37;;;2.67;;
7128;SDS011;3606;52.930;8.644;2023-01-08T15:19:06;3.93;;;2.50;;
7128;SDS011;3606;52.930;8.644;2023-01-08T15:21:37;9.67;;;4.90;;
7128;SDS011;3606;52.930;8.644;2023-01-08T15:24:14;13.43;;;2.83;;
7128;SDS011;3606;52.930;8.644;2023-01-08T15:26:50;5.87;;;3.33;;
7128;SDS011;3606;52.930;8.644;2023-01-08T15:29:25;7.50;;;3.40;;
7128;SDS011;3606;52.930;8.644;2023-01-08T15:31:57;8.97;;;4.50;;
7128;SDS011;3606;52.930;8.644;2023-01-08T15:34:43;15.43;;;5.93;;
7128;SDS011;3606;52.930;8.644;2023-01-08T15:37:10;7.67;;;4.30;;
7128;SDS011;3606;52.930;8.644;2023-01-08T15:39:36;7.10;;;2.70;;
7128;SDS011;3606;52.930;8.644;2023-01-08T15:45:14;12.33;;;3.13;;
7128;SDS011;3606;52.930;8.644;2023-01-08T15:47:43;3.67;;;2.00;;
7128;SDS011;3606;52.930;8.644;2023-01-08T15:50:09;6.33;;;2.63;;
7128;SDS011;3606;52.930;8.644;2023-01-08T15:52:36;7.53;;;2.40;;
7128;SDS011;3606;52.930;8.644;2023-01-08T15:55:02;1.33;;;1.13;;
7128;SDS011;3606;52.930;8.644;2023-01-08T15:57:28;3.07;;;1.40;;
7128;SDS011;3606;52.930;8.644;2023-01-08T15:59:57;2.50;;;1.40;;
7128;SDS011;3606;52.930;8.644;2023-01-08T16:02:23;1.70;;;1.30;;
7128;SDS011;3606;52.930;8.644;2023-01-08T16:04:52;0.90;;;0.90;;
7128;SDS011;3606;52.930;8.644;2023-01-08T16:07:19;0.73;;;0.70;;
7128;SDS011;3606;52.930;8.644;2023-01-08T16:09:44;1.50;;;1.13;;
7128;SDS011;3606;52.930;8.644;2023-01-08T16:12:10;3.90;;;1.97;;
7128;SDS011;3606;52.930;8.644;2023-01-08T16:14:36;4.07;;;2.37;;
7128;SDS011;3606;52.930;8.644;2023-01-08T16:17:02;3.03;;;2.30;;
7128;SDS011;3606;52.930;8.644;2023-01-08T16:19:29;3.50;;;1.97;;
7128;SDS011;3606;52.930;8.644;2023-01-08T16:21:55;7.53;;;3.20;;
7128;SDS011;3606;52.930;8.644;2023-01-08T16:24:21;6.93;;;3.23;;
7128;SDS011;3606;52.930;8.644;2023-01-08T16:26:46;9.67;;;3.50;;
7128;SDS011;3606;52.930;8.644;2023-01-08T16:29:12;1.97;;;1.70;;
7128;SDS011;3606;52.930;8.644;2023-01-08T16:31:37;2.40;;;1.87;;
7128;SDS011;3606;52.930;8.644;2023-01-08T16:34:03;2.97;;;2.27;;
7128;SDS011;3606;52.930;8.644;2023-01-08T16:36:29;2.43;;;1.80;;
7128;SDS011;3606;52.930;8.644;2023-01-08T16:38:55;2.40;;;1.60;;
7128;SDS011;3606;52.930;8.644;2023-01-08T16:41:21;1.70;;;1.60;;
7128;SDS011;3606;52.930;8.644;2023-01-08T16:43:46;1.40;;;1.23;;
7128;SDS011;3606;52.930;8.644;2023-01-08T16:46:13;1.63;;;1.53;;
7128;SDS011;3606;52.930;8.644;2023-01-08T16:48:41;2.90;;;1.90;;
7128;SDS011;3606;52.930;8.644;2023-01-08T16:51:07;4.13;;;1.93;;